createdAt,value
2019-03-21T00:00:57.669Z,99.99
2019-03-21T00:01:57.653Z,99.99
2019-03-21T00:02:57.622Z,99.99
2019-03-21T00:03:57.601Z,99.99
2019-03-21T00:04:57.587Z,99.99
2019-03-21T00:05:57.556Z,99.99
2019-03-21T00:06:57.541Z,99.99
2019-03-21T00:07:57.527Z,99.99
2019-03-21T00:08:57.489Z,99.99
2019-03-21T00:09:57.471Z,99.99
2019-03-21T00:10:57.446Z,99.99
2019-03-21T00:11:57.423Z,99.99
2019-03-21T00:12:57.402Z,99.99
2019-03-21T00:14:06.633Z,99.99
2019-03-21T00:14:57.471Z,99.99
2019-03-21T00:15:57.337Z,99.99
2019-03-21T00:16:57.322Z,99.99
2019-03-21T00:17:57.293Z,99.99
2019-03-21T00:18:57.272Z,99.99
2019-03-21T00:19:57.257Z,99.99
2019-03-21T00:20:57.229Z,99.99
2019-03-21T00:21:57.207Z,99.99
2019-03-21T00:22:57.235Z,99.99
2019-03-21T00:23:57.162Z,99.99
2019-03-21T00:24:57.140Z,99.99
2019-03-21T00:25:57.124Z,99.99
2019-03-21T00:26:57.096Z,99.99
2019-03-21T00:27:57.072Z,99.99
2019-03-21T00:28:57.059Z,99.99
2019-03-21T00:29:57.028Z,99.99
2019-03-21T00:30:57.013Z,99.99
2019-03-21T00:31:56.991Z,99.99
2019-03-21T00:32:56.964Z,99.99
2019-03-21T00:33:56.946Z,99.99
2019-03-21T00:34:56.921Z,99.99
2019-03-21T00:35:56.900Z,99.99
2019-03-21T00:36:56.879Z,99.99
2019-03-21T00:37:56.854Z,99.99
2019-03-21T00:38:56.833Z,99.99
2019-03-21T00:39:56.814Z,99.99
2019-03-21T00:40:56.791Z,99.99
2019-03-21T00:41:56.767Z,99.99
2019-03-21T00:42:56.758Z,99.99
2019-03-21T00:43:56.723Z,99.99
2019-03-21T00:44:56.702Z,99.99
2019-03-21T00:45:56.688Z,99.99
2019-03-21T00:46:56.658Z,99.99
2019-03-21T00:47:56.640Z,99.99
2019-03-21T00:48:56.619Z,99.99
2019-03-21T00:49:56.599Z,99.99
2019-03-21T00:50:56.570Z,99.99
2019-03-21T00:51:56.548Z,99.99
2019-03-21T00:52:56.531Z,99.99
2019-03-21T00:53:56.504Z,99.99
2019-03-21T00:54:56.491Z,99.99
2019-03-21T00:55:56.464Z,99.99
2019-03-21T00:56:56.440Z,99.99
2019-03-21T00:57:58.535Z,99.99
2019-03-21T00:58:56.396Z,99.99
2019-03-21T00:59:56.373Z,99.99
2019-03-21T01:00:56.353Z,99.99
2019-03-21T01:01:56.330Z,99.99
2019-03-21T01:02:56.308Z,99.99
2019-03-21T01:03:56.286Z,99.99
2019-03-21T01:04:56.264Z,99.99
2019-03-21T01:05:56.254Z,99.99
2019-03-21T01:06:56.226Z,99.99
2019-03-21T01:07:56.195Z,99.99
2019-03-21T01:08:56.176Z,99.99
2019-03-21T01:09:56.155Z,99.99
2019-03-21T01:10:56.133Z,99.99
2019-03-21T01:11:56.121Z,99.99
2019-03-21T01:12:56.089Z,99.99
2019-03-21T01:13:56.064Z,99.99
2019-03-21T01:14:56.046Z,99.99
2019-03-21T01:15:56.021Z,99.99
2019-03-21T01:16:56.007Z,99.99
2019-03-21T01:17:55.978Z,99.99
2019-03-21T01:18:55.957Z,99.99
2019-03-21T01:19:55.944Z,99.99
2019-03-21T01:20:55.911Z,99.99
2019-03-21T01:21:55.893Z,99.99
2019-03-21T01:22:55.886Z,99.99
2019-03-21T01:23:55.848Z,99.99
2019-03-21T01:24:55.828Z,99.99
2019-03-21T01:25:55.803Z,99.99
2019-03-21T01:26:55.790Z,99.99
2019-03-21T01:27:55.758Z,99.99
2019-03-21T01:28:55.736Z,99.99
2019-03-21T01:29:55.717Z,99.99
2019-03-21T01:30:55.691Z,99.99
2019-03-21T01:31:55.670Z,99.99
2019-03-21T01:32:55.648Z,99.99
2019-03-21T01:33:55.625Z,99.99
2019-03-21T01:34:55.605Z,99.99
2019-03-21T01:35:55.581Z,99.99
2019-03-21T01:36:55.570Z,99.99
2019-03-21T01:37:55.539Z,99.99
2019-03-21T01:38:55.518Z,99.99
2019-03-21T01:39:55.496Z,99.99
2019-03-21T01:40:55.474Z,99.99
2019-03-21T01:41:55.454Z,99.99
2019-03-21T01:42:55.428Z,99.99
2019-03-21T01:43:55.407Z,99.99
2019-03-21T01:44:55.386Z,99.99
2019-03-21T01:45:55.361Z,99.99
2019-03-21T01:46:55.341Z,99.99
2019-03-21T01:47:55.330Z,99.99
2019-03-21T01:48:55.296Z,99.99
2019-03-21T01:49:55.278Z,99.99
2019-03-21T01:50:55.255Z,99.99
2019-03-21T01:51:55.236Z,99.99
2019-03-21T01:52:55.208Z,99.99
2019-03-21T01:53:55.190Z,99.99
2019-03-21T01:54:55.167Z,99.99
2019-03-21T01:55:55.141Z,99.99
2019-03-21T01:56:55.124Z,99.99
2019-03-21T01:57:55.105Z,99.99
2019-03-21T01:58:55.076Z,99.99
2019-03-21T01:59:55.052Z,99.99
2019-03-21T02:00:55.032Z,99.99
2019-03-21T02:01:55.011Z,99.99
2019-03-21T02:02:54.986Z,99.99
2019-03-21T02:03:54.962Z,99.99
2019-03-21T02:04:54.944Z,99.99
2019-03-21T02:05:54.926Z,99.99
2019-03-21T02:06:54.900Z,99.99
2019-03-21T02:07:54.896Z,99.99
2019-03-21T02:08:54.853Z,99.99
2019-03-21T02:09:54.831Z,99.99
2019-03-21T02:10:54.810Z,99.99
2019-03-21T02:11:54.787Z,99.99
2019-03-21T02:12:54.776Z,99.99
2019-03-21T02:13:54.746Z,99.99
2019-03-21T02:14:54.724Z,99.99
2019-03-21T02:15:54.698Z,99.99
2019-03-21T02:16:54.683Z,99.99
2019-03-21T02:17:54.655Z,99.99
2019-03-21T02:18:54.632Z,99.99
2019-03-21T02:19:54.616Z,99.99
2019-03-21T02:20:54.595Z,99.99
2019-03-21T02:21:54.571Z,99.99
2019-03-21T02:22:54.543Z,99.99
2019-03-21T02:23:54.521Z,99.99
2019-03-21T02:24:54.505Z,99.99
2019-03-21T02:25:54.476Z,99.99
2019-03-21T02:26:54.466Z,99.99
2019-03-21T02:27:54.441Z,99.99
2019-03-21T02:28:54.412Z,99.99
2019-03-21T02:29:54.390Z,99.99
2019-03-21T02:30:54.373Z,99.99
2019-03-21T02:31:54.345Z,99.99
2019-03-21T02:32:54.323Z,99.99
2019-03-21T02:33:54.306Z,99.99
2019-03-21T02:34:54.279Z,99.99
2019-03-21T02:35:54.267Z,99.99
2019-03-21T02:36:54.234Z,99.99
2019-03-21T02:37:54.214Z,99.99
2019-03-21T02:38:54.191Z,99.99
2019-03-21T02:39:59.842Z,99.99
2019-03-21T02:40:54.147Z,99.99
2019-03-21T02:41:54.123Z,99.99
2019-03-21T02:42:54.104Z,99.99
2019-03-21T02:43:54.081Z,99.99
2019-03-21T02:45:07.800Z,99.99
2019-03-21T02:45:54.064Z,99.99
2019-03-21T02:46:54.013Z,99.99
2019-03-21T02:47:53.990Z,99.99
2019-03-21T02:48:53.969Z,99.99
2019-03-21T02:49:53.946Z,99.99
2019-03-21T02:50:53.932Z,99.99
2019-03-21T02:51:53.910Z,99.99
2019-03-21T02:52:53.883Z,99.99
2019-03-21T02:53:53.859Z,99.99
2019-03-21T02:54:53.844Z,99.99
2019-03-21T02:55:53.833Z,99.99
2019-03-21T02:56:53.795Z,99.99
2019-03-21T02:57:53.772Z,99.99
2019-03-21T02:58:53.747Z,99.99
2019-03-21T02:59:53.727Z,99.99
2019-03-21T03:00:53.706Z,99.99
2019-03-21T03:01:53.681Z,99.99
2019-03-21T03:02:53.672Z,99.99
2019-03-21T03:03:53.676Z,99.99
2019-03-21T03:04:53.618Z,99.99
2019-03-21T03:05:53.593Z,99.99
2019-03-21T03:06:53.575Z,99.99
2019-03-21T03:07:53.547Z,99.99
2019-03-21T03:08:53.527Z,99.99
2019-03-21T03:09:53.514Z,99.99
2019-03-21T03:10:53.480Z,99.99
2019-03-21T03:11:53.473Z,99.99
2019-03-21T03:12:53.459Z,99.99
2019-03-21T03:13:53.435Z,99.99
2019-03-21T03:14:53.392Z,99.99
2019-03-21T03:15:53.375Z,99.99
2019-03-21T03:16:53.357Z,99.99
2019-03-21T03:17:53.327Z,99.99
2019-03-21T03:18:53.309Z,99.99
2019-03-21T03:19:53.294Z,99.99
2019-03-21T03:20:53.262Z,99.99
2019-03-21T03:21:53.239Z,99.99
2019-03-21T03:22:53.224Z,99.99
2019-03-21T03:23:53.198Z,99.99
2019-03-21T03:24:53.173Z,99.99
2019-03-21T03:25:53.150Z,99.99
2019-03-21T03:26:53.138Z,99.99
2019-03-21T03:27:53.120Z,99.99
2019-03-21T03:28:53.113Z,99.99
2019-03-21T03:29:53.062Z,99.99
2019-03-21T03:30:53.061Z,99.99
2019-03-21T03:31:53.021Z,99.99
2019-03-21T03:32:52.996Z,99.99
2019-03-21T03:33:52.977Z,99.99
2019-03-21T03:34:52.953Z,99.99
2019-03-21T03:35:52.930Z,99.99
2019-03-21T03:36:52.929Z,99.99
2019-03-21T03:37:52.886Z,99.99
2019-03-21T03:38:52.865Z,99.99
2019-03-21T03:39:52.846Z,99.99
2019-03-21T03:40:52.829Z,99.99
2019-03-21T03:41:52.801Z,99.99
2019-03-21T03:42:52.778Z,99.99
2019-03-21T03:43:52.771Z,99.99
2019-03-21T03:44:52.729Z,99.99
2019-03-21T03:45:52.719Z,99.99
2019-03-21T03:46:52.696Z,99.99
2019-03-21T03:47:52.670Z,99.99
2019-03-21T03:48:52.649Z,99.99
2019-03-21T03:49:52.620Z,99.99
2019-03-21T03:50:52.610Z,99.99
2019-03-21T03:51:52.576Z,99.99
2019-03-21T03:52:52.552Z,99.99
2019-03-21T03:53:52.531Z,99.99
2019-03-21T03:54:52.513Z,99.99
2019-03-21T03:55:52.489Z,99.99
2019-03-21T03:56:52.468Z,99.99
2019-03-21T03:57:52.445Z,99.99
2019-03-21T03:58:52.434Z,99.99
2019-03-21T03:59:52.404Z,99.99
2019-03-21T04:00:52.383Z,99.99
2019-03-21T04:01:52.356Z,99.99
2019-03-21T04:02:52.335Z,99.99
2019-03-21T04:03:52.311Z,99.99
2019-03-21T04:04:52.289Z,99.99
2019-03-21T04:05:52.269Z,99.99
2019-03-21T04:06:52.248Z,99.99
2019-03-21T04:07:52.227Z,99.99
2019-03-21T04:08:52.202Z,99.99
2019-03-21T04:09:52.203Z,99.99
2019-03-21T04:10:52.159Z,99.99
2019-03-21T04:11:52.136Z,99.99
2019-03-21T04:12:52.115Z,99.99
2019-03-21T04:13:52.090Z,99.99
2019-03-21T04:14:52.067Z,99.99
2019-03-21T04:15:53.795Z,99.99
2019-03-21T04:16:52.023Z,99.99
2019-03-21T04:17:52.013Z,99.99
2019-03-21T04:18:51.979Z,99.99
2019-03-21T04:19:51.958Z,99.99
2019-03-21T04:20:51.940Z,99.99
2019-03-21T04:21:51.919Z,99.99
2019-03-21T04:22:51.891Z,99.99
2019-03-21T04:23:51.876Z,99.99
2019-03-21T04:24:51.845Z,99.99
2019-03-21T04:25:51.830Z,99.99
2019-03-21T04:26:51.812Z,99.99
2019-03-21T04:27:51.783Z,99.99
2019-03-21T04:28:51.757Z,99.99
2019-03-21T04:29:51.739Z,99.99
2019-03-21T04:30:51.723Z,99.99
2019-03-21T04:31:51.697Z,99.99
2019-03-21T04:32:51.685Z,99.99
2019-03-21T04:33:51.672Z,99.99
2019-03-21T04:34:51.626Z,99.99
2019-03-21T04:35:51.611Z,99.99
2019-03-21T04:36:51.598Z,99.99
2019-03-21T04:37:51.561Z,99.99
2019-03-21T04:38:51.540Z,99.99
2019-03-21T04:39:51.520Z,99.99
2019-03-21T04:40:51.492Z,99.99
2019-03-21T04:41:51.472Z,99.99
2019-03-21T04:42:51.449Z,99.99
2019-03-21T04:43:51.425Z,99.99
2019-03-21T04:44:51.406Z,99.99
2019-03-21T04:46:02.540Z,99.99
2019-03-21T04:46:51.359Z,99.99
2019-03-21T04:47:51.341Z,99.99
2019-03-21T04:48:51.314Z,99.99
2019-03-21T04:49:51.292Z,99.99
2019-03-21T04:50:51.274Z,99.99
2019-03-21T04:51:51.258Z,99.99
2019-03-21T04:52:51.227Z,99.99
2019-03-21T04:53:53.366Z,99.99
2019-03-21T04:54:51.182Z,99.99
2019-03-21T04:55:51.160Z,99.99
2019-03-21T04:56:51.137Z,99.99
2019-03-21T04:57:51.115Z,99.99
2019-03-21T04:58:51.098Z,99.99
2019-03-21T04:59:51.075Z,99.99
2019-03-21T05:00:51.053Z,99.99
2019-03-21T05:01:51.832Z,99.99
2019-03-21T05:02:51.005Z,99.99
2019-03-21T05:03:50.995Z,99.99
2019-03-21T05:04:50.963Z,99.99
2019-03-21T05:05:50.938Z,99.99
2019-03-21T05:06:50.921Z,99.99
2019-03-21T05:07:50.894Z,99.99
2019-03-21T05:08:50.873Z,99.99
2019-03-21T05:09:50.850Z,99.99
2019-03-21T05:10:50.829Z,99.99
2019-03-21T05:11:50.804Z,99.99
2019-03-21T05:12:50.782Z,99.99
2019-03-21T05:13:50.761Z,99.99
2019-03-21T05:14:50.740Z,99.99
2019-03-21T05:15:50.721Z,99.99
2019-03-21T05:16:50.693Z,99.99
2019-03-21T05:17:50.670Z,99.99
2019-03-21T05:18:50.651Z,99.99
2019-03-21T05:19:50.627Z,99.99
2019-03-21T05:20:50.610Z,99.99
2019-03-21T05:21:50.584Z,99.99
2019-03-21T05:22:50.565Z,99.99
2019-03-21T05:23:50.547Z,99.99
2019-03-21T05:24:50.526Z,99.99
2019-03-21T05:25:50.495Z,99.99
2019-03-21T05:26:50.472Z,99.99
2019-03-21T05:27:50.450Z,99.99
2019-03-21T05:28:50.429Z,99.99
2019-03-21T05:29:50.407Z,99.99
2019-03-21T05:30:50.386Z,99.99
2019-03-21T05:31:50.359Z,99.99
2019-03-21T05:32:50.344Z,99.99
2019-03-21T05:33:50.317Z,99.99
2019-03-21T05:34:50.293Z,99.99
2019-03-21T05:35:50.308Z,99.99
2019-03-21T05:36:50.596Z,99.99
2019-03-21T05:37:50.228Z,99.99
2019-03-21T05:38:50.207Z,99.99
2019-03-21T05:39:50.182Z,99.99
2019-03-21T05:40:50.165Z,99.99
2019-03-21T05:41:50.139Z,99.99
2019-03-21T05:42:50.121Z,99.99
2019-03-21T05:43:50.098Z,99.99
2019-03-21T05:44:50.071Z,99.99
2019-03-21T05:45:50.052Z,99.99
2019-03-21T05:46:50.028Z,99.99
2019-03-21T05:47:50.004Z,99.99
2019-03-21T05:48:49.983Z,99.99
2019-03-21T05:49:49.961Z,99.99
2019-03-21T05:50:49.939Z,99.99
2019-03-21T05:51:49.919Z,99.99
2019-03-21T05:52:49.894Z,99.99
2019-03-21T05:53:49.871Z,99.99
2019-03-21T05:54:49.854Z,99.99
2019-03-21T05:55:49.828Z,99.99
2019-03-21T05:56:49.803Z,99.99
2019-03-21T05:57:49.781Z,99.99
2019-03-21T05:58:49.771Z,99.99
2019-03-21T05:59:49.738Z,99.99
2019-03-21T06:00:51.353Z,99.99
2019-03-21T06:01:49.691Z,99.99
2019-03-21T06:02:49.669Z,99.99
2019-03-21T06:03:49.661Z,99.99
2019-03-21T06:04:49.625Z,99.99
2019-03-21T06:05:49.603Z,99.99
2019-03-21T06:06:49.584Z,99.99
2019-03-21T06:07:49.559Z,99.99
2019-03-21T06:08:49.534Z,99.99
2019-03-21T06:09:49.513Z,99.99
2019-03-21T06:10:49.501Z,99.99
2019-03-21T06:11:49.521Z,99.99
2019-03-21T06:12:49.449Z,99.99
2019-03-21T06:13:49.426Z,99.99
2019-03-21T06:14:49.402Z,99.99
2019-03-21T06:15:49.378Z,99.99
2019-03-21T06:16:49.361Z,99.99
2019-03-21T06:17:49.335Z,99.99
2019-03-21T06:18:49.311Z,99.99
2019-03-21T06:19:49.308Z,99.99
2019-03-21T06:20:49.266Z,99.99
2019-03-21T06:21:49.250Z,99.99
2019-03-21T06:22:49.233Z,99.99
2019-03-21T06:23:49.200Z,99.99
2019-03-21T06:24:49.177Z,99.99
2019-03-21T06:25:49.155Z,99.99
2019-03-21T06:26:50.416Z,99.99
2019-03-21T06:27:49.110Z,99.99
2019-03-21T06:28:49.085Z,99.99
2019-03-21T06:29:49.066Z,99.99
2019-03-21T06:30:49.044Z,99.99
2019-03-21T06:31:49.025Z,99.99
2019-03-21T06:32:48.999Z,99.99
2019-03-21T06:33:48.974Z,99.99
2019-03-21T06:34:48.956Z,99.99
2019-03-21T06:35:48.931Z,99.99
2019-03-21T06:36:48.907Z,99.99
2019-03-21T06:37:48.887Z,99.99
2019-03-21T06:38:48.863Z,99.99
2019-03-21T06:39:48.844Z,99.99
2019-03-21T06:40:48.818Z,99.99
2019-03-21T06:41:48.800Z,99.99
2019-03-21T06:42:48.778Z,99.99
2019-03-21T06:43:48.754Z,99.99
2019-03-21T06:44:48.729Z,99.99
2019-03-21T06:45:48.708Z,99.99
2019-03-21T06:46:49.873Z,99.99
2019-03-21T06:47:48.660Z,99.99
2019-03-21T06:48:48.643Z,99.99
2019-03-21T06:49:48.620Z,99.99
2019-03-21T06:50:48.597Z,99.99
2019-03-21T06:51:48.573Z,99.99
2019-03-21T06:52:48.567Z,99.99
2019-03-21T06:53:48.529Z,99.99
2019-03-21T06:54:48.507Z,99.99
2019-03-21T06:55:48.481Z,99.99
2019-03-21T06:56:48.460Z,99.99
2019-03-21T06:57:48.446Z,99.99
2019-03-21T06:58:48.418Z,99.99
2019-03-21T06:59:48.393Z,99.99
2019-03-21T07:00:48.385Z,99.99
2019-03-21T07:01:48.350Z,99.99
2019-03-21T07:02:48.329Z,99.99
2019-03-21T07:03:48.307Z,99.99
2019-03-21T07:04:48.291Z,99.99
2019-03-21T07:05:48.262Z,99.99
2019-03-21T07:06:48.245Z,99.99
2019-03-21T07:07:48.216Z,99.99
2019-03-21T07:08:48.194Z,99.99
2019-03-21T07:09:48.178Z,99.99
2019-03-21T07:10:48.152Z,99.99
2019-03-21T07:11:48.129Z,99.99
2019-03-21T07:12:48.103Z,99.99
2019-03-21T07:13:48.090Z,99.99
2019-03-21T07:14:48.061Z,99.99
2019-03-21T07:15:48.040Z,99.99
2019-03-21T07:16:48.017Z,99.99
2019-03-21T07:17:47.991Z,99.99
2019-03-21T07:18:47.972Z,99.99
2019-03-21T07:19:47.952Z,99.99
2019-03-21T07:20:47.928Z,99.99
2019-03-21T07:21:47.910Z,99.99
2019-03-21T07:22:47.885Z,99.99
2019-03-21T07:23:47.862Z,99.99
2019-03-21T07:24:47.837Z,99.99
2019-03-21T07:25:47.811Z,99.99
2019-03-21T07:26:47.793Z,99.99
2019-03-21T07:27:47.767Z,99.99
2019-03-21T07:28:47.745Z,99.99
2019-03-21T07:29:47.726Z,99.99
2019-03-21T07:30:47.704Z,99.99
2019-03-21T07:31:47.686Z,99.99
2019-03-21T07:32:47.657Z,99.99
2019-03-21T07:33:47.637Z,99.99
2019-03-21T07:34:47.615Z,99.99
2019-03-21T07:35:47.600Z,99.99
2019-03-21T07:36:47.571Z,99.99
2019-03-21T07:37:47.546Z,99.99
2019-03-21T07:38:47.525Z,99.99
2019-03-21T07:39:47.512Z,99.99
2019-03-21T07:40:47.480Z,99.99
2019-03-21T07:41:47.462Z,99.99
2019-03-21T07:42:47.435Z,99.99
2019-03-21T07:43:47.410Z,99.99
2019-03-21T07:44:47.406Z,99.99
2019-03-21T07:45:47.369Z,99.99
2019-03-21T07:46:47.352Z,99.99
2019-03-21T07:47:47.323Z,99.99
2019-03-21T07:48:47.307Z,99.99
2019-03-21T07:49:47.287Z,99.99
2019-03-21T07:50:47.256Z,99.99
2019-03-21T07:51:47.235Z,99.99
2019-03-21T07:52:47.212Z,99.99
2019-03-21T07:53:47.194Z,99.99
2019-03-21T07:54:47.182Z,99.99
2019-03-21T07:55:47.148Z,99.99
2019-03-21T07:56:47.136Z,99.60
2019-03-21T07:57:47.108Z,99.32
2019-03-21T07:58:47.092Z,99.51
2019-03-21T07:59:47.062Z,99.41
2019-03-21T08:00:47.039Z,98.84
2019-03-21T08:01:47.014Z,98.55
2019-03-21T08:02:47.007Z,99.13
2019-03-21T08:03:46.969Z,98.84
2019-03-21T08:04:46.963Z,97.41
2019-03-21T08:05:46.928Z,97.41
2019-03-21T08:06:46.917Z,96.55
2019-03-21T08:07:46.882Z,97.70
2019-03-21T08:08:46.861Z,97.79
2019-03-21T08:09:46.839Z,97.99
2019-03-21T08:10:46.822Z,96.55
2019-03-21T08:11:46.799Z,96.94
2019-03-21T08:12:46.779Z,96.17
2019-03-21T08:13:46.752Z,96.17
2019-03-21T08:14:46.732Z,95.65
2019-03-21T08:15:46.716Z,95.65
2019-03-21T08:16:46.692Z,95.65
2019-03-21T08:17:46.662Z,95.94
2019-03-21T08:18:46.644Z,95.75
2019-03-21T08:19:46.673Z,95.75
2019-03-21T08:20:56.307Z,95.17
2019-03-21T08:21:46.578Z,95.17
2019-03-21T08:22:46.558Z,95.56
2019-03-21T08:23:46.535Z,95.17
2019-03-21T08:24:46.521Z,95.75
2019-03-21T08:25:46.491Z,95.08
2019-03-21T08:26:46.468Z,95.94
2019-03-21T08:27:46.446Z,95.56
2019-03-21T08:28:46.426Z,94.79
2019-03-21T08:29:46.402Z,94.65
2019-03-21T08:30:46.382Z,93.98
2019-03-21T08:31:46.361Z,94.46
2019-03-21T08:32:46.341Z,94.56
2019-03-21T08:33:46.319Z,94.74
2019-03-21T08:34:46.300Z,94.56
2019-03-21T08:35:46.272Z,94.74
2019-03-21T08:36:46.252Z,94.84
2019-03-21T08:37:46.230Z,94.46
2019-03-21T08:38:46.209Z,94.46
2019-03-21T08:39:46.185Z,94.56
2019-03-21T08:40:46.165Z,93.03
2019-03-21T08:41:46.143Z,93.12
2019-03-21T08:42:46.124Z,93.51
2019-03-21T08:43:46.101Z,93.22
2019-03-21T08:44:46.080Z,93.51
2019-03-21T08:45:46.064Z,92.74
2019-03-21T08:46:46.040Z,92.74
2019-03-21T08:47:46.015Z,93.12
2019-03-21T08:48:45.996Z,92.46
2019-03-21T08:49:45.971Z,92.84
2019-03-21T08:50:45.959Z,92.93
2019-03-21T08:51:45.931Z,92.74
2019-03-21T08:52:45.928Z,92.17
2019-03-21T08:53:45.887Z,91.03
2019-03-21T08:54:45.867Z,91.79
2019-03-21T08:55:45.843Z,91.60
2019-03-21T08:56:45.831Z,91.50
2019-03-21T08:57:45.800Z,91.98
2019-03-21T08:58:45.780Z,92.08
2019-03-21T08:59:47.982Z,91.64
2019-03-21T09:00:45.737Z,90.88
2019-03-21T09:01:45.716Z,91.55
2019-03-21T09:02:45.694Z,91.64
2019-03-21T09:03:45.673Z,91.55
2019-03-21T09:04:45.653Z,91.55
2019-03-21T09:05:45.633Z,91.36
2019-03-21T09:06:45.608Z,90.41
2019-03-21T09:07:45.588Z,90.88
2019-03-21T09:08:45.571Z,90.59
2019-03-21T09:09:45.553Z,91.07
2019-03-21T09:10:45.546Z,90.98
2019-03-21T09:11:45.501Z,92.03
2019-03-21T09:12:45.479Z,91.36
2019-03-21T09:13:45.458Z,90.98
2019-03-21T09:14:45.438Z,90.41
2019-03-21T09:15:45.413Z,90.79
2019-03-21T09:16:45.391Z,90.88
2019-03-21T09:17:45.372Z,90.59
2019-03-21T09:18:45.358Z,89.74
2019-03-21T09:19:45.399Z,90.31
2019-03-21T09:20:45.311Z,90.22
2019-03-21T09:21:45.302Z,90.69
2019-03-21T09:22:45.265Z,91.12
2019-03-21T09:23:45.243Z,90.17
2019-03-21T09:24:45.222Z,90.07
2019-03-21T09:25:45.202Z,89.69
2019-03-21T09:26:45.182Z,90.64
2019-03-21T09:27:45.158Z,89.50
2019-03-21T09:28:45.139Z,88.83
2019-03-21T09:29:53.370Z,89.31
2019-03-21T09:30:45.093Z,88.73
2019-03-21T09:31:45.071Z,89.31
2019-03-21T09:32:45.052Z,88.83
2019-03-21T09:33:45.031Z,89.06
2019-03-21T09:34:45.009Z,88.97
2019-03-21T09:35:44.988Z,89.06
2019-03-21T09:36:44.968Z,89.73
2019-03-21T09:37:44.947Z,89.83
2019-03-21T09:38:44.927Z,90.40
2019-03-21T09:39:44.914Z,89.64
2019-03-21T09:40:44.884Z,88.30
2019-03-21T09:41:44.865Z,87.92
2019-03-21T09:42:44.846Z,88.01
2019-03-21T09:43:44.820Z,87.63
2019-03-21T09:44:44.806Z,87.54
2019-03-21T09:45:44.783Z,87.68
2019-03-21T09:46:50.852Z,88.34
2019-03-21T09:47:44.746Z,87.77
2019-03-21T09:48:44.724Z,86.63
2019-03-21T09:49:44.697Z,86.63
2019-03-21T09:50:44.677Z,86.63
2019-03-21T09:51:44.660Z,86.24
2019-03-21T09:52:44.634Z,86.43
2019-03-21T09:53:44.623Z,86.34
2019-03-21T09:54:44.594Z,86.05
2019-03-21T09:55:44.576Z,85.86
2019-03-21T09:56:44.553Z,85.00
2019-03-21T09:57:44.532Z,85.10
2019-03-21T09:58:44.513Z,86.24
2019-03-21T09:59:44.498Z,86.53
2019-03-21T10:00:44.477Z,85.48
2019-03-21T10:01:44.450Z,84.91
2019-03-21T10:02:44.435Z,85.67
2019-03-21T10:03:44.409Z,85.19
2019-03-21T10:04:44.392Z,85.10
2019-03-21T10:05:44.375Z,84.91
2019-03-21T10:06:44.346Z,84.91
2019-03-21T10:07:44.328Z,84.91
2019-03-21T10:08:44.307Z,85.38
2019-03-21T10:09:44.285Z,85.33
2019-03-21T10:10:44.265Z,84.28
2019-03-21T10:11:44.245Z,83.47
2019-03-21T10:12:44.225Z,83.80
2019-03-21T10:13:44.207Z,84.95
2019-03-21T10:14:44.185Z,83.70
2019-03-21T10:15:44.165Z,84.56
2019-03-21T10:16:44.148Z,83.90
2019-03-21T10:17:44.126Z,84.19
2019-03-21T10:18:44.105Z,83.61
2019-03-21T10:19:44.083Z,84.09
2019-03-21T10:20:44.064Z,84.66
2019-03-21T10:21:44.045Z,83.80
2019-03-21T10:22:44.022Z,83.23
2019-03-21T10:23:44.003Z,83.23
2019-03-21T10:24:43.989Z,82.37
2019-03-21T10:25:43.966Z,83.42
2019-03-21T10:26:43.942Z,83.90
2019-03-21T10:27:43.920Z,83.51
2019-03-21T10:28:43.902Z,83.04
2019-03-21T10:29:43.884Z,81.89
2019-03-21T10:30:43.862Z,82.03
2019-03-21T10:31:43.845Z,83.94
2019-03-21T10:32:43.826Z,83.84
2019-03-21T10:33:43.807Z,83.08
2019-03-21T10:34:43.790Z,82.70
2019-03-21T10:35:43.761Z,81.84
2019-03-21T10:36:43.740Z,83.27
2019-03-21T10:37:43.723Z,82.89
2019-03-21T10:38:43.701Z,82.79
2019-03-21T10:39:43.682Z,82.98
2019-03-21T10:40:43.665Z,82.89
2019-03-21T10:41:43.652Z,82.70
2019-03-21T10:42:43.621Z,82.31
2019-03-21T10:43:43.601Z,81.07
2019-03-21T10:44:43.588Z,81.84
2019-03-21T10:45:43.573Z,82.03
2019-03-21T10:46:43.544Z,81.21
2019-03-21T10:47:43.577Z,80.44
2019-03-21T10:48:43.509Z,80.30
2019-03-21T10:49:43.487Z,80.69
2019-03-21T10:50:43.468Z,81.21
2019-03-21T10:51:54.104Z,80.35
2019-03-21T10:52:43.433Z,79.77
2019-03-21T10:53:43.405Z,79.49
2019-03-21T10:54:43.388Z,78.53
2019-03-21T10:55:43.368Z,79.20
2019-03-21T10:56:43.347Z,80.25
2019-03-21T10:57:43.328Z,80.16
2019-03-21T10:58:43.309Z,78.81
2019-03-21T10:59:43.307Z,79.29
2019-03-21T11:00:43.267Z,78.43
2019-03-21T11:01:43.248Z,77.38
2019-03-21T11:02:43.229Z,78.43
2019-03-21T11:03:43.246Z,79.20
2019-03-21T11:04:43.188Z,79.10
2019-03-21T11:05:43.169Z,78.72
2019-03-21T11:06:43.155Z,77.86
2019-03-21T11:07:43.137Z,78.05
2019-03-21T11:08:43.112Z,78.24
2019-03-21T11:09:43.091Z,78.81
2019-03-21T11:10:43.071Z,78.91
2019-03-21T11:11:43.048Z,78.34
2019-03-21T11:12:43.029Z,79.96
2019-03-21T11:13:43.009Z,77.95
2019-03-21T11:14:42.994Z,78.63
2019-03-21T11:15:42.971Z,78.81
2019-03-21T11:16:42.951Z,78.38
2019-03-21T11:17:42.933Z,78.38
2019-03-21T11:18:42.914Z,77.70
2019-03-21T11:19:42.893Z,76.65
2019-03-21T11:20:42.874Z,76.23
2019-03-21T11:21:42.855Z,77.19
2019-03-21T11:22:42.837Z,77.80
2019-03-21T11:23:42.824Z,76.84
2019-03-21T11:24:42.802Z,76.81
2019-03-21T11:25:42.776Z,76.14
2019-03-21T11:26:42.757Z,77.28
2019-03-21T11:27:42.754Z,77.57
2019-03-21T11:28:42.757Z,78.91
2019-03-21T11:29:42.701Z,79.00
2019-03-21T11:30:42.679Z,77.80
2019-03-21T11:31:42.659Z,77.09
2019-03-21T11:32:42.655Z,78.95
2019-03-21T11:33:42.621Z,77.80
2019-03-21T11:34:42.601Z,76.75
2019-03-21T11:35:42.580Z,76.84
2019-03-21T11:36:42.564Z,76.81
2019-03-21T11:37:42.552Z,77.19
2019-03-21T11:38:42.524Z,76.90
2019-03-21T11:39:42.516Z,77.90
2019-03-21T11:40:42.490Z,78.76
2019-03-21T11:41:42.466Z,77.90
2019-03-21T11:42:42.445Z,76.62
2019-03-21T11:43:42.431Z,77.86
2019-03-21T11:44:42.414Z,76.71
2019-03-21T11:45:42.389Z,77.19
2019-03-21T11:46:42.374Z,77.09
2019-03-21T11:47:42.473Z,78.05
2019-03-21T11:48:42.334Z,78.19
2019-03-21T11:49:42.316Z,77.33
2019-03-21T11:50:42.291Z,76.56
2019-03-21T11:51:42.286Z,77.70
2019-03-21T11:52:42.255Z,77.99
2019-03-21T11:53:42.233Z,78.66
2019-03-21T11:54:42.223Z,76.94
2019-03-21T11:55:42.194Z,76.84
2019-03-21T11:56:42.181Z,77.23
2019-03-21T11:57:42.234Z,76.27
2019-03-21T11:58:42.144Z,76.46
2019-03-21T11:59:51.393Z,77.04
2019-03-21T12:00:43.819Z,77.33
2019-03-21T12:01:42.079Z,76.65
2019-03-21T12:02:42.069Z,75.98
2019-03-21T12:03:42.040Z,75.31
2019-03-21T12:04:42.021Z,76.46
2019-03-21T12:05:42.001Z,77.90
2019-03-21T12:06:41.982Z,77.42
2019-03-21T12:07:41.962Z,77.13
2019-03-21T12:08:41.945Z,75.98
2019-03-21T12:09:41.926Z,74.93
2019-03-21T12:10:41.904Z,75.83
2019-03-21T12:11:41.886Z,75.70
2019-03-21T12:12:41.893Z,75.12
2019-03-21T12:13:41.853Z,76.46
2019-03-21T12:14:41.989Z,76.50
2019-03-21T12:15:41.809Z,77.84
2019-03-21T12:16:41.793Z,75.26
2019-03-21T12:17:41.775Z,75.73
2019-03-21T12:18:41.753Z,74.49
2019-03-21T12:19:41.731Z,75.64
2019-03-21T12:20:41.725Z,76.79
2019-03-21T12:21:41.704Z,74.77
2019-03-21T12:22:41.676Z,74.58
2019-03-21T12:23:41.657Z,74.77
2019-03-21T12:24:41.639Z,74.58
2019-03-21T12:25:41.619Z,74.68
2019-03-21T12:26:41.599Z,75.26
2019-03-21T12:27:41.582Z,76.40
2019-03-21T12:28:41.566Z,74.58
2019-03-21T12:29:41.555Z,74.01
2019-03-21T12:30:41.524Z,75.45
2019-03-21T12:31:41.516Z,75.07
2019-03-21T12:32:41.488Z,75.16
2019-03-21T12:33:41.465Z,74.30
2019-03-21T12:34:41.461Z,75.07
2019-03-21T12:35:41.427Z,76.31
2019-03-21T12:36:41.416Z,75.48
2019-03-21T12:37:41.389Z,76.06
2019-03-21T12:38:41.373Z,74.43
2019-03-21T12:39:41.355Z,74.82
2019-03-21T12:40:41.345Z,74.52
2019-03-21T12:41:41.321Z,74.52
2019-03-21T12:42:41.296Z,74.33
2019-03-21T12:43:41.275Z,74.24
2019-03-21T12:44:41.258Z,73.44
2019-03-21T12:45:41.239Z,73.72
2019-03-21T12:46:41.219Z,73.63
2019-03-21T12:47:41.202Z,74.40
2019-03-21T12:48:41.181Z,74.87
2019-03-21T12:49:41.163Z,76.12
2019-03-21T12:50:41.152Z,75.35
2019-03-21T12:51:41.130Z,75.07
2019-03-21T12:52:41.779Z,75.16